sensor_id;sensor_type;location;lat;lon;timestamp;pressure;altitude;pressure_sealevel;temperature;humidity
44734;BME280;30462;52.446;-1.930;2023-12-22T00:00:14;99672.95313;;;;
44734;BME280;30462;52.446;-1.930;2023-12-22T00:01:14;99674.48828;;;;
44734;BME280;30462;52.446;-1.930;2023-12-22T00:02:14;99680.04297;;;;
44734;BME280;30462;52.446;-1.930;2023-12-22T00:03:14;99676.16406;;;;
44734;BME280;30462;52.446;-1.930;2023-12-22T00:04:14;99668.16797;;;;
44734;BME280;30462;52.446;-1.930;2023-12-22T00:05:14;99669.80469;;;;
44734;BME280;30462;52.446;-1.930;2023-12-22T00:06:13;99667.18359;;;;
44734;BME280;30462;52.446;-1.930;2023-12-22T00:07:14;99667.51953;;;;
44734;BME280;30462;52.446;-1.930;2023-12-22T00:08:14;99671.51172;;;;
44734;BME280;30462;52.446;-1.930;2023-12-22T00:09:14;99667.55859;;;;
44734;BME280;30462;52.446;-1.930;2023-12-22T00:10:14;99671.80078;;;;
44734;BME280;30462;52.446;-1.930;2023-12-22T00:11:14;99666.83203;;;;
44734;BME280;30462;52.446;-1.930;2023-12-22T00:12:14;99664.21094;;;;
44734;BME280;30462;52.446;-1.930;2023-12-22T00:13:14;99662.55469;;;;
44734;BME280;30462;52.446;-1.930;2023-12-22T00:14:14;99662.9375;;;;
44734;BME280;30462;52.446;-1.930;2023-12-22T00:15:13;99670.16016;;;;
44734;BME280;30462;52.446;-1.930;2023-12-22T00:16:14;99676.05859;;;;
44734;BME280;30462;52.446;-1.930;2023-12-22T00:17:14;99681.19531;;;;
44734;BME280;30462;52.446;-1.930;2023-12-22T00:18:14;99676.42969;;;;
44734;BME280;30462;52.446;-1.930;2023-12-22T00:19:14;99676.84766;;;;
44734;BME280;30462;52.446;-1.930;2023-12-22T00:20:14;99671.82813;;;;
44734;BME280;30462;52.446;-1.930;2023-12-22T00:21:14;99676.10156;;;;
44734;BME280;30462;52.446;-1.930;2023-12-22T00:22:14;99672.22266;;;;
44734;BME280;30462;52.446;-1.930;2023-12-22T00:23:14;99677.30469;;;;
44734;BME280;30462;52.446;-1.930;2023-12-22T00:24:14;99678.76563;;;;
44734;BME280;30462;52.446;-1.930;2023-12-22T00:25:14;99672.0625;;;;
44734;BME280;30462;52.446;-1.930;2023-12-22T00:26:14;99662.30078;;;;
44734;BME280;30462;52.446;-1.930;2023-12-22T00:27:14;99674.95313;;;;
44734;BME280;30462;52.446;-1.930;2023-12-22T00:28:14;99670.3125;;;;
44734;BME280;30462;52.446;-1.930;2023-12-22T00:29:13;99673.73438;;;;
44734;BME280;30462;52.446;-1.930;2023-12-22T00:30:14;99668.98438;;;;
44734;BME280;30462;52.446;-1.930;2023-12-22T00:31:14;99671.55078;;;;
44734;BME280;30462;52.446;-1.930;2023-12-22T00:32:14;99685.13281;;;;
44734;BME280;30462;52.446;-1.930;2023-12-22T00:33:14;99672.86328;;;;
44734;BME280;30462;52.446;-1.930;2023-12-22T00:34:14;99669.57031;;;;
44734;BME280;30462;52.446;-1.930;2023-12-22T00:35:14;99673.78906;;;;
44734;BME280;30462;52.446;-1.930;2023-12-22T00:36:14;99673.58594;;;;
44734;BME280;30462;52.446;-1.930;2023-12-22T00:37:13;99681.61719;;;;
44734;BME280;30462;52.446;-1.930;2023-12-22T00:38:13;99678.70313;;;;
44734;BME280;30462;52.446;-1.930;2023-12-22T00:39:14;99673.47656;;;;
44734;BME280;30462;52.446;-1.930;2023-12-22T00:40:14;99679.29688;;;;
44734;BME280;30462;52.446;-1.930;2023-12-22T00:41:14;99680.04297;;;;
44734;BME280;30462;52.446;-1.930;2023-12-22T00:42:14;99676.43359;;;;
44734;BME280;30462;52.446;-1.930;2023-12-22T00:43:13;99675.58203;;;;
44734;BME280;30462;52.446;-1.930;2023-12-22T00:44:14;99677.01953;;;;
44734;BME280;30462;52.446;-1.930;2023-12-22T00:45:14;99679.69141;;;;
44734;BME280;30462;52.446;-1.930;2023-12-22T00:46:14;99676.4375;;;;
44734;BME280;30462;52.446;-1.930;2023-12-22T00:47:14;99668.96094;;;;
44734;BME280;30462;52.446;-1.930;2023-12-22T00:48:14;99679.07031;;;;
44734;BME280;30462;52.446;-1.930;2023-12-22T00:49:13;99679.92969;;;;
44734;BME280;30462;52.446;-1.930;2023-12-22T00:50:14;99681.03516;;;;
44734;BME280;30462;52.446;-1.930;2023-12-22T00:51:14;99673.89844;;;;
44734;BME280;30462;52.446;-1.930;2023-12-22T00:52:14;99680.66406;;;;
44734;BME280;30462;52.446;-1.930;2023-12-22T00:53:14;99681.82422;;;;
44734;BME280;30462;52.446;-1.930;2023-12-22T00:54:13;99682.42188;;;;
44734;BME280;30462;52.446;-1.930;2023-12-22T00:55:14;99684.33984;;;;
44734;BME280;30462;52.446;-1.930;2023-12-22T00:56:14;99680.85156;;;;
44734;BME280;30462;52.446;-1.930;2023-12-22T00:57:14;99686.74219;;;;
44734;BME280;30462;52.446;-1.930;2023-12-22T00:58:13;99687.77734;;;;
44734;BME280;30462;52.446;-1.930;2023-12-22T00:59:13;99690.33984;;;;
44734;BME280;30462;52.446;-1.930;2023-12-22T01:00:14;99688.52734;;;;
44734;BME280;30462;52.446;-1.930;2023-12-22T01:01:14;99692.20313;;;;
44734;BME280;30462;52.446;-1.930;2023-12-22T01:02:14;99693.93359;;;;
44734;BME280;30462;52.446;-1.930;2023-12-22T01:03:14;99692.46484;;;;
44734;BME280;30462;52.446;-1.930;2023-12-22T01:04:14;99691.21094;;;;
44734;BME280;30462;52.446;-1.930;2023-12-22T01:05:14;99681.28125;;;;
44734;BME280;30462;52.446;-1.930;2023-12-22T01:06:14;99685.65625;;;;
44734;BME280;30462;52.446;-1.930;2023-12-22T01:07:14;99687.12891;;;;
44734;BME280;30462;52.446;-1.930;2023-12-22T01:08:14;99695.80469;;;;
44734;BME280;30462;52.446;-1.930;2023-12-22T01:09:14;99692.91016;;;;
44734;BME280;30462;52.446;-1.930;2023-12-22T01:10:14;99694.55469;;;;
44734;BME280;30462;52.446;-1.930;2023-12-22T01:11:14;99691.92578;;;;
44734;BME280;30462;52.446;-1.930;2023-12-22T01:12:14;99689.98047;;;;
44734;BME280;30462;52.446;-1.930;2023-12-22T01:13:14;99687.02734;;;;
44734;BME280;30462;52.446;-1.930;2023-12-22T01:14:14;99690.09766;;;;
44734;BME280;30462;52.446;-1.930;2023-12-22T01:15:14;99690.90625;;;;
44734;BME280;30462;52.446;-1.930;2023-12-22T01:16:14;99688.73828;;;;
44734;BME280;30462;52.446;-1.930;2023-12-22T01:17:14;99685.57422;;;;
44734;BME280;30462;52.446;-1.930;2023-12-22T01:18:13;99685.08594;;;;
44734;BME280;30462;52.446;-1.930;2023-12-22T01:19:14;99686.87109;;;;
44734;BME280;30462;52.446;-1.930;2023-12-22T01:20:14;99688.67969;;;;
44734;BME280;30462;52.446;-1.930;2023-12-22T01:21:14;99686.32422;;;;
44734;BME280;30462;52.446;-1.930;2023-12-22T01:22:14;99686.37891;;;;
44734;BME280;30462;52.446;-1.930;2023-12-22T01:23:14;99686.65625;;;;
44734;BME280;30462;52.446;-1.930;2023-12-22T01:24:14;99682.55469;;;;
44734;BME280;30462;52.446;-1.930;2023-12-22T01:25:14;99679.01172;;;;
44734;BME280;30462;52.446;-1.930;2023-12-22T01:26:13;99684.58594;;;;
44734;BME280;30462;52.446;-1.930;2023-12-22T01:27:14;99679.67969;;;;
44734;BME280;30462;52.446;-1.930;2023-12-22T01:28:14;99676.39063;;;;
44734;BME280;30462;52.446;-1.930;2023-12-22T01:29:14;99670.39453;;;;
44734;BME280;30462;52.446;-1.930;2023-12-22T01:30:14;99669.44922;;;;
44734;BME280;30462;52.446;-1.930;2023-12-22T01:31:14;99667.37891;;;;
44734;BME280;30462;52.446;-1.930;2023-12-22T01:32:13;99664.64063;;;;
44734;BME280;30462;52.446;-1.930;2023-12-22T01:33:13;99658.19141;;;;
44734;BME280;30462;52.446;-1.930;2023-12-22T01:34:14;99661.80469;;;;
44734;BME280;30462;52.446;-1.930;2023-12-22T01:35:14;99663.67188;;;;
44734;BME280;30462;52.446;-1.930;2023-12-22T01:36:14;99655.19531;;;;
44734;BME280;30462;52.446;-1.930;2023-12-22T01:37:14;99648.94922;;;;
44734;BME280;30462;52.446;-1.930;2023-12-22T01:38:14;99652.27344;;;;
44734;BME280;30462;52.446;-1.930;2023-12-22T01:39:13;99650.34766;;;;
44734;BME280;30462;52.446;-1.930;2023-12-22T01:40:14;99643.19531;;;;
44734;BME280;30462;52.446;-1.930;2023-12-22T01:41:14;99645.26953;;;;
44734;BME280;30462;52.446;-1.930;2023-12-22T01:42:14;99636.97656;;;;
44734;BME280;30462;52.446;-1.930;2023-12-22T01:43:14;99635.17969;;;;
44734;BME280;30462;52.446;-1.930;2023-12-22T01:44:14;99632.54688;;;;
44734;BME280;30462;52.446;-1.930;2023-12-22T01:45:14;99637.73828;;;;
44734;BME280;30462;52.446;-1.930;2023-12-22T01:46:14;99638.05078;;;;
44734;BME280;30462;52.446;-1.930;2023-12-22T01:47:14;99634.72266;;;;
44734;BME280;30462;52.446;-1.930;2023-12-22T01:48:14;99641.26563;;;;
44734;BME280;30462;52.446;-1.930;2023-12-22T01:49:13;99647.76563;;;;
44734;BME280;30462;52.446;-1.930;2023-12-22T01:50:14;99649.67188;;;;
44734;BME280;30462;52.446;-1.930;2023-12-22T01:51:14;99653.38672;;;;
44734;BME280;30462;52.446;-1.930;2023-12-22T01:52:14;99647.3125;;;;
44734;BME280;30462;52.446;-1.930;2023-12-22T01:53:14;99640.98438;;;;
44734;BME280;30462;52.446;-1.930;2023-12-22T01:54:14;99643.72656;;;;
44734;BME280;30462;52.446;-1.930;2023-12-22T01:55:14;99637.94141;;;;
44734;BME280;30462;52.446;-1.930;2023-12-22T01:56:14;99637.30078;;;;
44734;BME280;30462;52.446;-1.930;2023-12-22T01:57:15;99632.5;;;;
44734;BME280;30462;52.446;-1.930;2023-12-22T01:58:14;99635.85156;;;;
44734;BME280;30462;52.446;-1.930;2023-12-22T01:59:14;99635.47656;;;;
44734;BME280;30462;52.446;-1.930;2023-12-22T02:00:14;99635.1875;;;;
44734;BME280;30462;52.446;-1.930;2023-12-22T02:01:14;99632.46094;;;;
44734;BME280;30462;52.446;-1.930;2023-12-22T02:02:14;99631.15625;;;;
44734;BME280;30462;52.446;-1.930;2023-12-22T02:03:14;99628.85547;;;;
44734;BME280;30462;52.446;-1.930;2023-12-22T02:04:14;99630.17188;;;;
44734;BME280;30462;52.446;-1.930;2023-12-22T02:05:14;99632.39063;;;;
44734;BME280;30462;52.446;-1.930;2023-12-22T02:06:15;99628.35547;;;;
44734;BME280;30462;52.446;-1.930;2023-12-22T02:07:14;99628.48047;;;;
44734;BME280;30462;52.446;-1.930;2023-12-22T02:08:15;99622.14063;;;;
44734;BME280;30462;52.446;-1.930;2023-12-22T02:09:14;99629.41406;;;;
44734;BME280;30462;52.446;-1.930;2023-12-22T02:10:14;99627.39844;;;;
44734;BME280;30462;52.446;-1.930;2023-12-22T02:11:14;99632.48438;;;;
44734;BME280;30462;52.446;-1.930;2023-12-22T02:12:14;99629.63672;;;;
44734;BME280;30462;52.446;-1.930;2023-12-22T02:13:14;99628.54297;;;;
44734;BME280;30462;52.446;-1.930;2023-12-22T02:14:14;99623.41406;;;;
44734;BME280;30462;52.446;-1.930;2023-12-22T02:15:14;99626.46094;;;;
44734;BME280;30462;52.446;-1.930;2023-12-22T02:16:18;99625.30859;;;;
44734;BME280;30462;52.446;-1.930;2023-12-22T02:17:20;99625.30859;;;;
44734;BME280;30462;52.446;-1.930;2023-12-22T02:18:14;99630.66406;;;;
44734;BME280;30462;52.446;-1.930;2023-12-22T02:19:18;99632.83984;;;;
44734;BME280;30462;52.446;-1.930;2023-12-22T02:20:14;99638.51563;;;;
44734;BME280;30462;52.446;-1.930;2023-12-22T02:21:14;99627.76563;;;;
44734;BME280;30462;52.446;-1.930;2023-12-22T02:22:14;99636.44922;;;;
44734;BME280;30462;52.446;-1.930;2023-12-22T02:23:14;99635.35547;;;;
44734;BME280;30462;52.446;-1.930;2023-12-22T02:24:13;99626.89453;;;;
44734;BME280;30462;52.446;-1.930;2023-12-22T02:25:14;99620.95703;;;;
44734;BME280;30462;52.446;-1.930;2023-12-22T02:26:22;99620.68359;;;;
44734;BME280;30462;52.446;-1.930;2023-12-22T02:27:15;99619.74219;;;;
44734;BME280;30462;52.446;-1.930;2023-12-22T02:28:15;99616.13672;;;;
44734;BME280;30462;52.446;-1.930;2023-12-22T02:29:14;99618.37891;;;;
44734;BME280;30462;52.446;-1.930;2023-12-22T02:30:14;99613.79297;;;;
44734;BME280;30462;52.446;-1.930;2023-12-22T02:31:20;99626.5625;;;;
44734;BME280;30462;52.446;-1.930;2023-12-22T02:32:21;99627.76563;;;;
44734;BME280;30462;52.446;-1.930;2023-12-22T02:33:15;99623.60156;;;;
44734;BME280;30462;52.446;-1.930;2023-12-22T02:34:16;99618.54688;;;;
44734;BME280;30462;52.446;-1.930;2023-12-22T02:35:14;99620.01563;;;;
44734;BME280;30462;52.446;-1.930;2023-12-22T02:36:14;99622.62109;;;;
44734;BME280;30462;52.446;-1.930;2023-12-22T02:37:14;99615.91406;;;;
44734;BME280;30462;52.446;-1.930;2023-12-22T02:38:13;99618.80469;;;;
44734;BME280;30462;52.446;-1.930;2023-12-22T02:39:14;99619.94922;;;;
44734;BME280;30462;52.446;-1.930;2023-12-22T02:40:14;99625.63672;;;;
44734;BME280;30462;52.446;-1.930;2023-12-22T02:41:14;99621.72266;;;;
44734;BME280;30462;52.446;-1.930;2023-12-22T02:42:14;99614.22656;;;;
44734;BME280;30462;52.446;-1.930;2023-12-22T02:43:14;99609.09375;;;;
44734;BME280;30462;52.446;-1.930;2023-12-22T02:44:13;99608.61719;;;;
44734;BME280;30462;52.446;-1.930;2023-12-22T02:45:14;99607.56641;;;;
44734;BME280;30462;52.446;-1.930;2023-12-22T02:46:15;99605.33203;;;;
44734;BME280;30462;52.446;-1.930;2023-12-22T02:47:13;99603.25781;;;;
44734;BME280;30462;52.446;-1.930;2023-12-22T02:48:14;99598.67188;;;;
44734;BME280;30462;52.446;-1.930;2023-12-22T02:49:14;99599.31641;;;;
44734;BME280;30462;52.446;-1.930;2023-12-22T02:50:14;99593.95313;;;;
44734;BME280;30462;52.446;-1.930;2023-12-22T02:51:14;99587.18359;;;;
44734;BME280;30462;52.446;-1.930;2023-12-22T02:52:14;99597.04688;;;;
44734;BME280;30462;52.446;-1.930;2023-12-22T02:53:14;99597.15234;;;;
44734;BME280;30462;52.446;-1.930;2023-12-22T02:54:14;99586.92969;;;;
44734;BME280;30462;52.446;-1.930;2023-12-22T02:55:13;99596.48438;;;;
44734;BME280;30462;52.446;-1.930;2023-12-22T02:56:14;99599.05078;;;;
44734;BME280;30462;52.446;-1.930;2023-12-22T02:57:14;99601.4375;;;;
44734;BME280;30462;52.446;-1.930;2023-12-22T02:58:14;99598.23438;;;;
44734;BME280;30462;52.446;-1.930;2023-12-22T02:59:14;99601.81641;;;;
44734;BME280;30462;52.446;-1.930;2023-12-22T03:00:14;99603.03906;;;;
44734;BME280;30462;52.446;-1.930;2023-12-22T03:01:14;99604.65625;;;;
44734;BME280;30462;52.446;-1.930;2023-12-22T03:02:14;99610.01172;;;;
44734;BME280;30462;52.446;-1.930;2023-12-22T03:03:14;99612.44922;;;;
44734;BME280;30462;52.446;-1.930;2023-12-22T03:04:14;99608.08203;;;;
44734;BME280;30462;52.446;-1.930;2023-12-22T03:05:13;99612.19531;;;;
44734;BME280;30462;52.446;-1.930;2023-12-22T03:06:14;99611.92188;;;;
44734;BME280;30462;52.446;-1.930;2023-12-22T03:07:14;99609.48047;;;;
44734;BME280;30462;52.446;-1.930;2023-12-22T03:08:13;99603.3125;;;;
44734;BME280;30462;52.446;-1.930;2023-12-22T03:09:13;99592.92188;;;;
44734;BME280;30462;52.446;-1.930;2023-12-22T03:10:14;99592.51563;;;;
44734;BME280;30462;52.446;-1.930;2023-12-22T03:11:14;99592.82813;;;;
44734;BME280;30462;52.446;-1.930;2023-12-22T03:12:14;99594.86328;;;;
44734;BME280;30462;52.446;-1.930;2023-12-22T03:13:14;99597.42969;;;;
44734;BME280;30462;52.446;-1.930;2023-12-22T03:14:14;99596.99219;;;;
44734;BME280;30462;52.446;-1.930;2023-12-22T03:15:13;99601.30469;;;;
44734;BME280;30462;52.446;-1.930;2023-12-22T03:16:13;99607.40234;;;;
44734;BME280;30462;52.446;-1.930;2023-12-22T03:17:14;99609.375;;;;
44734;BME280;30462;52.446;-1.930;2023-12-22T03:18:14;99604.875;;;;
44734;BME280;30462;52.446;-1.930;2023-12-22T03:19:14;99604.27734;;;;
44734;BME280;30462;52.446;-1.930;2023-12-22T03:20:14;99605.02344;;;;
44734;BME280;30462;52.446;-1.930;2023-12-22T03:21:16;99595.58203;;;;
44734;BME280;30462;52.446;-1.930;2023-12-22T03:22:14;99599.52344;;;;
44734;BME280;30462;52.446;-1.930;2023-12-22T03:23:14;99600.63672;;;;
44734;BME280;30462;52.446;-1.930;2023-12-22T03:24:13;99592.71875;;;;
44734;BME280;30462;52.446;-1.930;2023-12-22T03:25:14;99591.75;;;;
44734;BME280;30462;52.446;-1.930;2023-12-22T03:26:14;99593.27734;;;;
44734;BME280;30462;52.446;-1.930;2023-12-22T03:27:14;99589.44141;;;;
44734;BME280;30462;52.446;-1.930;2023-12-22T03:28:14;99592.51563;;;;
44734;BME280;30462;52.446;-1.930;2023-12-22T03:29:13;99588.96875;;;;
44734;BME280;30462;52.446;-1.930;2023-12-22T03:30:13;99592.68359;;;;
44734;BME280;30462;52.446;-1.930;2023-12-22T03:31:13;99592.625;;;;
44734;BME280;30462;52.446;-1.930;2023-12-22T03:32:14;99586.63281;;;;
44734;BME280;30462;52.446;-1.930;2023-12-22T03:33:14;99578.9375;;;;
44734;BME280;30462;52.446;-1.930;2023-12-22T03:34:14;99569.26172;;;;
44734;BME280;30462;52.446;-1.930;2023-12-22T03:35:14;99571.82422;;;;
44734;BME280;30462;52.446;-1.930;2023-12-22T03:36:14;99573.91406;;;;
44734;BME280;30462;52.446;-1.930;2023-12-22T03:37:14;99575.38672;;;;
44734;BME280;30462;52.446;-1.930;2023-12-22T03:38:14;99579.92188;;;;
44734;BME280;30462;52.446;-1.930;2023-12-22T03:39:13;99576.80859;;;;
44734;BME280;30462;52.446;-1.930;2023-12-22T03:40:14;99582.57813;;;;
44734;BME280;30462;52.446;-1.930;2023-12-22T03:41:14;99569.71484;;;;
44734;BME280;30462;52.446;-1.930;2023-12-22T03:42:14;99573.15234;;;;
44734;BME280;30462;52.446;-1.930;2023-12-22T03:43:14;99574.11719;;;;
44734;BME280;30462;52.446;-1.930;2023-12-22T03:44:14;99574.58984;;;;
44734;BME280;30462;52.446;-1.930;2023-12-22T03:45:14;99569.71484;;;;
44734;BME280;30462;52.446;-1.930;2023-12-22T03:46:13;99578.9375;;;;
44734;BME280;30462;52.446;-1.930;2023-12-22T03:47:13;99570.42188;;;;
44734;BME280;30462;52.446;-1.930;2023-12-22T03:48:14;99570.78906;;;;
44734;BME280;30462;52.446;-1.930;2023-12-22T03:49:14;99565.60156;;;;
44734;BME280;30462;52.446;-1.930;2023-12-22T03:50:14;99565.4375;;;;
44734;BME280;30462;52.446;-1.930;2023-12-22T03:51:14;99570.33594;;;;
44734;BME280;30462;52.446;-1.930;2023-12-22T03:52:14;99572.11719;;;;
44734;BME280;30462;52.446;-1.930;2023-12-22T03:53:13;99577.79688;;;;
44734;BME280;30462;52.446;-1.930;2023-12-22T03:54:14;99573.21094;;;;
44734;BME280;30462;52.446;-1.930;2023-12-22T03:55:14;99579.47266;;;;
44734;BME280;30462;52.446;-1.930;2023-12-22T03:56:14;99586.40625;;;;
44734;BME280;30462;52.446;-1.930;2023-12-22T03:57:14;99585.95313;;;;
44734;BME280;30462;52.446;-1.930;2023-12-22T03:58:14;99573.55859;;;;
44734;BME280;30462;52.446;-1.930;2023-12-22T03:59:14;99580.32422;;;;
44734;BME280;30462;52.446;-1.930;2023-12-22T04:00:14;99580.875;;;;
44734;BME280;30462;52.446;-1.930;2023-12-22T04:01:14;99580.07422;;;;
44734;BME280;30462;52.446;-1.930;2023-12-22T04:02:14;99583.94922;;;;
44734;BME280;30462;52.446;-1.930;2023-12-22T04:03:14;99586.11328;;;;
44734;BME280;30462;52.446;-1.930;2023-12-22T04:04:14;99582.56641;;;;
44734;BME280;30462;52.446;-1.930;2023-12-22T04:05:14;99582.03906;;;;
44734;BME280;30462;52.446;-1.930;2023-12-22T04:06:14;99583.87891;;;;
44734;BME280;30462;52.446;-1.930;2023-12-22T04:07:13;99584.22266;;;;
44734;BME280;30462;52.446;-1.930;2023-12-22T04:08:14;99580.78125;;;;
44734;BME280;30462;52.446;-1.930;2023-12-22T04:09:14;99581.70703;;;;
44734;BME280;30462;52.446;-1.930;2023-12-22T04:10:15;99578.28906;;;;
44734;BME280;30462;52.446;-1.930;2023-12-22T04:11:14;99596.63281;;;;
44734;BME280;30462;52.446;-1.930;2023-12-22T04:12:13;99583.05469;;;;
44734;BME280;30462;52.446;-1.930;2023-12-22T04:13:14;99580.05078;;;;
44734;BME280;30462;52.446;-1.930;2023-12-22T04:14:14;99590.20313;;;;
44734;BME280;30462;52.446;-1.930;2023-12-22T04:15:14;99587.56641;;;;
44734;BME280;30462;52.446;-1.930;2023-12-22T04:16:13;99582.41406;;;;
44734;BME280;30462;52.446;-1.930;2023-12-22T04:17:14;99585.74609;;;;
44734;BME280;30462;52.446;-1.930;2023-12-22T04:18:14;99581.81641;;;;
44734;BME280;30462;52.446;-1.930;2023-12-22T04:19:14;99580.9375;;;;
44734;BME280;30462;52.446;-1.930;2023-12-22T04:20:14;99567.63672;;;;
44734;BME280;30462;52.446;-1.930;2023-12-22T04:21:13;99577.66406;;;;
44734;BME280;30462;52.446;-1.930;2023-12-22T04:22:14;99582.87109;;;;
44734;BME280;30462;52.446;-1.930;2023-12-22T04:23:14;99585.43359;;;;
44734;BME280;30462;52.446;-1.930;2023-12-22T04:24:14;99569.21875;;;;
44734;BME280;30462;52.446;-1.930;2023-12-22T04:25:14;99570.96875;;;;
44734;BME280;30462;52.446;-1.930;2023-12-22T04:26:14;99564.19922;;;;
44734;BME280;30462;52.446;-1.930;2023-12-22T04:27:13;99567.69531;;;;
44734;BME280;30462;52.446;-1.930;2023-12-22T04:28:14;99565.05859;;;;
44734;BME280;30462;52.446;-1.930;2023-12-22T04:29:14;99569.80469;;;;
44734;BME280;30462;52.446;-1.930;2023-12-22T04:30:14;99564.49219;;;;
44734;BME280;30462;52.446;-1.930;2023-12-22T04:31:14;99571.97266;;;;
44734;BME280;30462;52.446;-1.930;2023-12-22T04:32:13;99574.94141;;;;
44734;BME280;30462;52.446;-1.930;2023-12-22T04:33:14;99572.68359;;;;
44734;BME280;30462;52.446;-1.930;2023-12-22T04:34:14;99572.625;;;;
44734;BME280;30462;52.446;-1.930;2023-12-22T04:35:14;99570.95313;;;;
44734;BME280;30462;52.446;-1.930;2023-12-22T04:36:13;99574.75781;;;;
44734;BME280;30462;52.446;-1.930;2023-12-22T04:37:14;99573.33594;;;;
44734;BME280;30462;52.446;-1.930;2023-12-22T04:38:14;99579.16016;;;;
44734;BME280;30462;52.446;-1.930;2023-12-22T04:39:14;99587.46094;;;;
44734;BME280;30462;52.446;-1.930;2023-12-22T04:40:14;99583.76563;;;;
44734;BME280;30462;52.446;-1.930;2023-12-22T04:41:14;99590.27734;;;;
44734;BME280;30462;52.446;-1.930;2023-12-22T04:42:14;99588.41797;;;;
44734;BME280;30462;52.446;-1.930;2023-12-22T04:43:13;99593.17188;;;;
44734;BME280;30462;52.446;-1.930;2023-12-22T04:44:13;99594.37109;;;;
44734;BME280;30462;52.446;-1.930;2023-12-22T04:45:13;99592.58984;;;;
44734;BME280;30462;52.446;-1.930;2023-12-22T04:46:13;99598.51953;;;;
44734;BME280;30462;52.446;-1.930;2023-12-22T04:47:14;99593.81641;;;;
44734;BME280;30462;52.446;-1.930;2023-12-22T04:48:14;99594.47266;;;;
44734;BME280;30462;52.446;-1.930;2023-12-22T04:49:14;99593.59766;;;;
44734;BME280;30462;52.446;-1.930;2023-12-22T04:50:14;99589.5;;;;
44734;BME280;30462;52.446;-1.930;2023-12-22T04:51:13;99592.95703;;;;
44734;BME280;30462;52.446;-1.930;2023-12-22T04:52:14;99591.84766;;;;
44734;BME280;30462;52.446;-1.930;2023-12-22T04:53:14;99592.78906;;;;
44734;BME280;30462;52.446;-1.930;2023-12-22T04:54:14;99595.89844;;;;
44734;BME280;30462;52.446;-1.930;2023-12-22T04:55:13;99595.85938;;;;
44734;BME280;30462;52.446;-1.930;2023-12-22T04:56:13;99601.97656;;;;
44734;BME280;30462;52.446;-1.930;2023-12-22T04:57:14;99601.57813;;;;
44734;BME280;30462;52.446;-1.930;2023-12-22T04:58:14;99601.25;;;;
44734;BME280;30462;52.446;-1.930;2023-12-22T04:59:14;99598.67188;;;;
44734;BME280;30462;52.446;-1.930;2023-12-22T05:00:14;99593.48828;;;;
44734;BME280;30462;52.446;-1.930;2023-12-22T05:01:14;99588.23438;;;;
44734;BME280;30462;52.446;-1.930;2023-12-22T05:02:14;99600.84766;;;;
44734;BME280;30462;52.446;-1.930;2023-12-22T05:03:14;99607.37891;;;;
44734;BME280;30462;52.446;-1.930;2023-12-22T05:04:13;99608.25;;;;
44734;BME280;30462;52.446;-1.930;2023-12-22T05:05:14;99606.25;;;;
44734;BME280;30462;52.446;-1.930;2023-12-22T05:06:14;99603.64453;;;;
44734;BME280;30462;52.446;-1.930;2023-12-22T05:07:14;99606.20703;;;;
44734;BME280;30462;52.446;-1.930;2023-12-22T05:08:13;99605.16406;;;;
44734;BME280;30462;52.446;-1.930;2023-12-22T05:09:13;99602.94531;;;;
44734;BME280;30462;52.446;-1.930;2023-12-22T05:10:14;99607.64063;;;;
44734;BME280;30462;52.446;-1.930;2023-12-22T05:11:14;99610.32813;;;;
44734;BME280;30462;52.446;-1.930;2023-12-22T05:12:13;99614.41016;;;;
44734;BME280;30462;52.446;-1.930;2023-12-22T05:13:14;99620.51953;;;;
44734;BME280;30462;52.446;-1.930;2023-12-22T05:14:14;99613.91406;;;;
44734;BME280;30462;52.446;-1.930;2023-12-22T05:15:14;99611.24219;;;;
44734;BME280;30462;52.446;-1.930;2023-12-22T05:16:14;99609.55078;;;;
44734;BME280;30462;52.446;-1.930;2023-12-22T05:17:14;99612.82422;;;;
44734;BME280;30462;52.446;-1.930;2023-12-22T05:18:13;99609.05859;;;;
44734;BME280;30462;52.446;-1.930;2023-12-22T05:19:14;99605.71094;;;;
44734;BME280;30462;52.446;-1.930;2023-12-22T05:20:14;99604.29688;;;;
44734;BME280;30462;52.446;-1.930;2023-12-22T05:21:14;99607.78906;;;;
44734;BME280;30462;52.446;-1.930;2023-12-22T05:22:14;99609.22266;;;;
44734;BME280;30462;52.446;-1.930;2023-12-22T05:23:15;99608.56641;;;;
44734;BME280;30462;52.446;-1.930;2023-12-22T05:24:14;99610.76563;;;;
44734;BME280;30462;52.446;-1.930;2023-12-22T05:25:13;99613;;;;
44734;BME280;30462;52.446;-1.930;2023-12-22T05:27:14;99606.30078;;;;
44734;BME280;30462;52.446;-1.930;2023-12-22T05:28:14;99606.44922;;;;
44734;BME280;30462;52.446;-1.930;2023-12-22T05:29:14;99598.67969;;;;
44734;BME280;30462;52.446;-1.930;2023-12-22T05:30:14;99598.27734;;;;
44734;BME280;30462;52.446;-1.930;2023-12-22T05:31:14;99601.97266;;;;
44734;BME280;30462;52.446;-1.930;2023-12-22T05:32:14;99596.89844;;;;
44734;BME280;30462;52.446;-1.930;2023-12-22T05:33:13;99599.19531;;;;
44734;BME280;30462;52.446;-1.930;2023-12-22T05:34:14;99599.88281;;;;
44734;BME280;30462;52.446;-1.930;2023-12-22T05:35:14;99601.59766;;;;
44734;BME280;30462;52.446;-1.930;2023-12-22T05:36:14;99599.02344;;;;
44734;BME280;30462;52.446;-1.930;2023-12-22T05:37:14;99595.35547;;;;
44734;BME280;30462;52.446;-1.930;2023-12-22T05:38:13;99600.60156;;;;
44734;BME280;30462;52.446;-1.930;2023-12-22T05:39:14;99598.64453;;;;
44734;BME280;30462;52.446;-1.930;2023-12-22T05:40:14;99603.42969;;;;
44734;BME280;30462;52.446;-1.930;2023-12-22T05:41:14;99605.27734;;;;
44734;BME280;30462;52.446;-1.930;2023-12-22T05:42:14;99606.13672;;;;
44734;BME280;30462;52.446;-1.930;2023-12-22T05:43:13;99605.75781;;;;
44734;BME280;30462;52.446;-1.930;2023-12-22T05:44:13;99605.03125;;;;
44734;BME280;30462;52.446;-1.930;2023-12-22T05:45:14;99610.48828;;;;
44734;BME280;30462;52.446;-1.930;2023-12-22T05:46:14;99598.41016;;;;
44734;BME280;30462;52.446;-1.930;2023-12-22T05:47:14;99597.97656;;;;